Time;durP1;ratioP1;P1;durP2;ratioP2;P2;SDS_P1;SDS_P2;PMS_P1;PMS_P2;Temp;Humidity;BMP_temperature;BMP_pressure;BME280_temperature;BME280_humidity;BME280_pressure;Samples;Min_cycle;Max_cycle;Signal;HPM_P1;HPM_P2
2022/12/12 00:02:17;;;;;;;11.07;7.20;;;1.90;99.90;;;;;;6142990;28;20479;-65
2022/12/12 00:05:20;;;;;;;8.50;7.60;;;1.80;99.90;;;;;;6142757;28;20479;-63
2022/12/12 00:08:23;;;;;;;9.97;7.70;;;1.80;99.90;;;;;;6143835;28;20518;-63
2022/12/12 00:11:27;;;;;;;8.73;7.80;;;1.80;99.90;;;;;;6140500;28;20538;-61
2022/12/12 00:14:31;;;;;;;10.90;9.17;;;1.80;99.90;;;;;;6144158;28;20817;-61
2022/12/12 00:17:35;;;;;;;10.10;7.53;;;1.80;99.90;;;;;;6142125;28;20479;-62
2022/12/12 00:20:38;;;;;;;8.87;7.60;;;1.80;99.90;;;;;;6142898;28;20510;-63
2022/12/12 00:23:41;;;;;;;9.27;8.37;;;1.80;99.90;;;;;;6142124;28;20478;-61
2022/12/12 00:26:44;;;;;;;9.20;7.80;;;1.80;99.90;;;;;;6152138;28;20468;-61
2022/12/12 00:29:53;;;;;;;8.10;7.23;;;1.80;99.90;;;;;;6146817;28;20826;-60
2022/12/12 00:32:56;;;;;;;8.90;8.00;;;1.80;99.90;;;;;;6143178;28;20483;-60
2022/12/12 00:35:59;;;;;;;10.30;7.93;;;1.80;99.90;;;;;;6144505;28;20475;-60
2022/12/12 00:39:03;;;;;;;10.87;8.07;;;1.80;99.90;;;;;;6143945;28;20982;-65
2022/12/12 00:42:06;;;;;;;10.13;8.43;;;1.80;99.90;;;;;;6140838;28;20483;-66
2022/12/12 00:45:11;;;;;;;10.73;8.07;;;1.90;99.90;;;;;;6143250;28;20471;-66
2022/12/12 00:48:15;;;;;;;8.93;8.00;;;1.90;99.90;;;;;;6138121;28;20531;-62
2022/12/12 00:51:20;;;;;;;9.60;7.97;;;2.00;99.90;;;;;;6130885;28;20482;-62
2022/12/12 00:54:23;;;;;;;10.70;8.03;;;1.90;99.90;;;;;;6130219;28;20484;-62
2022/12/12 00:57:27;;;;;;;8.63;7.73;;;2.00;99.90;;;;;;6130598;28;20467;-62
2022/12/12 01:00:33;;;;;;;9.77;8.10;;;1.90;99.90;;;;;;6130552;28;20467;-62
2022/12/12 01:03:37;;;;;;;10.20;8.50;;;1.80;99.90;;;;;;6130430;28;20480;-62
2022/12/12 01:06:41;;;;;;;11.40;8.23;;;1.70;99.90;;;;;;6130553;28;20483;-62
2022/12/12 01:09:44;;;;;;;8.13;7.30;;;1.70;99.90;;;;;;6133539;28;20829;-61
2022/12/12 01:12:47;;;;;;;9.77;7.90;;;1.70;99.90;;;;;;6141661;28;20975;-62
2022/12/12 01:15:51;;;;;;;8.93;8.10;;;1.70;99.90;;;;;;6141756;28;20976;-62
2022/12/12 01:18:55;;;;;;;8.30;6.97;;;1.70;99.90;;;;;;6140423;28;20471;-62
2022/12/12 01:21:58;;;;;;;10.33;8.13;;;1.70;99.90;;;;;;6141848;28;20476;-62
2022/12/12 01:25:01;;;;;;;11.30;9.10;;;1.70;99.90;;;;;;6139645;28;21047;-62
2022/12/12 01:28:05;;;;;;;9.00;8.10;;;1.60;99.90;;;;;;6141139;28;20986;-62
2022/12/12 01:31:09;;;;;;;9.53;8.53;;;1.50;99.90;;;;;;6133724;28;20553;-62
2022/12/12 01:34:13;;;;;;;9.80;7.83;;;1.40;99.90;;;;;;6142027;28;20787;-62
2022/12/12 01:37:16;;;;;;;11.47;8.70;;;1.40;99.90;;;;;;6144579;28;20448;-62
2022/12/12 01:40:21;;;;;;;8.53;7.73;;;1.40;99.90;;;;;;6139946;28;20447;-62
2022/12/12 01:43:25;;;;;;;9.70;7.93;;;1.40;99.90;;;;;;6142141;28;20490;-62
2022/12/12 01:46:40;;;;;;;8.17;7.47;;;1.20;99.90;;;;;;6141503;28;20472;-62
2022/12/12 01:49:48;;;;;;;10.13;8.17;;;1.20;99.90;;;;;;6140019;28;20543;-61
2022/12/12 01:52:51;;;;;;;11.40;9.50;;;1.20;99.90;;;;;;6140688;28;20478;-61
2022/12/12 01:55:55;;;;;;;11.10;9.57;;;1.10;99.90;;;;;;6141174;28;20478;-62
2022/12/12 01:59:03;;;;;;;10.20;9.10;;;1.10;99.90;;;;;;6142048;28;20478;-62
2022/12/12 02:02:09;;;;;;;12.17;8.50;;;1.00;99.90;;;;;;6140377;28;20480;-62
2022/12/12 02:05:24;;;;;;;9.63;8.63;;;1.10;99.90;;;;;;6142367;28;20536;-62
2022/12/12 02:08:29;;;;;;;9.37;8.37;;;1.00;99.90;;;;;;6139529;28;20475;-62
2022/12/12 02:11:35;;;;;;;9.70;8.70;;;1.00;99.90;;;;;;6139436;28;20595;-61
2022/12/12 02:14:41;;;;;;;10.57;8.77;;;1.00;99.90;;;;;;6140385;28;20476;-62
2022/12/12 02:17:58;;;;;;;11.10;9.17;;;1.00;99.90;;;;;;6141695;28;20955;-61
2022/12/12 02:21:14;;;;;;;10.50;8.37;;;1.00;99.90;;;;;;6152015;28;20471;-61
2022/12/12 02:24:40;;;;;;;9.70;8.07;;;0.90;99.90;;;;;;6141834;28;20475;-62
2022/12/12 02:28:13;;;;;;;11.23;8.50;;;1.00;99.90;;;;;;6139924;28;20474;-62
2022/12/12 02:31:23;;;;;;;10.93;7.57;;;1.00;99.90;;;;;;6140249;28;20503;-62
2022/12/12 02:34:33;;;;;;;9.73;8.73;;;1.00;99.90;;;;;;6154531;28;20468;-62
2022/12/12 02:37:41;;;;;;;10.87;8.00;;;1.00;99.90;;;;;;6168018;28;20477;-62
2022/12/12 02:40:51;;;;;;;9.57;8.10;;;1.00;99.90;;;;;;6153641;28;20467;-61
2022/12/12 02:44:05;;;;;;;8.27;7.40;;;1.00;99.90;;;;;;6143314;28;20774;-61
2022/12/12 02:47:15;;;;;;;8.43;7.63;;;1.00;99.90;;;;;;6143591;28;20971;-62
2022/12/12 02:50:22;;;;;;;11.50;9.00;;;1.00;99.90;;;;;;6150751;28;20486;-62
2022/12/12 02:53:25;;;;;;;10.00;8.87;;;1.00;99.90;;;;;;6143717;28;20476;-62
2022/12/12 02:56:48;;;;;;;11.57;8.80;;;1.00;99.90;;;;;;6147500;28;20481;-62
2022/12/12 02:59:55;;;;;;;11.23;9.50;;;1.00;99.90;;;;;;6143707;28;20483;-62
2022/12/12 03:10:21;;;;;;;10.73;8.40;;;1.00;99.90;;;;;;6154341;28;20775;-62
2022/12/12 03:13:33;;;;;;;9.80;8.80;;;1.00;99.90;;;;;;6156257;28;20466;-62
2022/12/12 03:16:42;;;;;;;9.87;8.87;;;1.00;99.90;;;;;;6156477;28;20862;-62
2022/12/12 03:19:54;;;;;;;10.10;8.57;;;1.00;99.90;;;;;;6158558;28;20808;-62
2022/12/12 03:23:02;;;;;;;13.20;8.63;;;1.00;99.90;;;;;;6156343;28;20975;-62
2022/12/12 03:26:12;;;;;;;11.23;8.30;;;0.90;99.90;;;;;;6156245;28;20475;-61
2022/12/12 03:29:19;;;;;;;13.10;9.17;;;0.90;99.90;;;;;;6156384;28;20475;-61
2022/12/12 03:32:26;;;;;;;11.17;9.10;;;1.00;99.90;;;;;;6155779;28;20509;-62
2022/12/12 03:35:36;;;;;;;9.40;8.50;;;1.00;99.90;;;;;;6156022;28;20482;-62
2022/12/12 03:38:43;;;;;;;11.97;9.13;;;1.00;99.90;;;;;;6140832;28;20609;-61
2022/12/12 03:41:51;;;;;;;12.13;8.90;;;0.90;99.90;;;;;;6142708;28;20475;-62
2022/12/12 03:45:01;;;;;;;9.30;8.30;;;0.80;99.90;;;;;;6139927;28;20480;-62
2022/12/12 03:48:09;;;;;;;11.70;9.27;;;0.90;99.90;;;;;;6141173;28;20974;-62
2022/12/12 03:51:18;;;;;;;10.80;8.80;;;0.90;99.90;;;;;;6141578;28;20487;-62
2022/12/12 03:54:24;;;;;;;11.10;9.07;;;0.80;99.90;;;;;;6140794;28;20998;-62
2022/12/12 03:57:31;;;;;;;10.07;8.47;;;0.80;99.90;;;;;;6148860;28;20485;-62
2022/12/12 04:00:36;;;;;;;10.53;8.53;;;0.80;99.90;;;;;;6155034;28;20474;-62
2022/12/12 04:03:48;;;;;;;9.40;8.40;;;0.80;99.90;;;;;;6154824;28;20475;-62
2022/12/12 04:06:59;;;;;;;9.50;7.73;;;0.70;99.90;;;;;;6155292;28;20565;-61
2022/12/12 04:13:32;;;;;;;10.63;8.73;;;0.60;99.90;;;;;;6154896;28;20479;-61
2022/12/12 04:16:40;;;;;;;14.33;8.90;;;0.60;99.90;;;;;;6154967;28;20474;-61
2022/12/12 04:23:23;;;;;;;12.77;9.33;;;0.50;99.90;;;;;;6154448;28;20513;-61
2022/12/12 04:26:39;;;;;;;16.83;8.80;;;0.60;99.90;;;;;;6154267;28;20508;-61
2022/12/12 04:29:47;;;;;;;11.13;9.03;;;0.50;99.90;;;;;;6152904;28;20538;-62
2022/12/12 04:32:58;;;;;;;14.97;9.57;;;0.50;99.90;;;;;;6152572;28;20506;-62
2022/12/12 04:36:03;;;;;;;11.43;9.10;;;0.50;99.90;;;;;;6151177;28;20470;-62
2022/12/12 04:39:10;;;;;;;11.00;8.20;;;0.40;99.90;;;;;;6154132;28;20482;-62
2022/12/12 04:42:16;;;;;;;9.63;8.63;;;0.40;99.90;;;;;;6154452;28;20482;-62
2022/12/12 04:45:25;;;;;;;9.47;8.50;;;0.40;99.90;;;;;;6146028;28;20480;-61
2022/12/12 04:48:32;;;;;;;12.50;9.77;;;0.40;99.90;;;;;;6161591;28;20856;-62
2022/12/12 04:51:44;;;;;;;10.17;8.20;;;0.40;99.90;;;;;;6155359;28;20621;-61
2022/12/12 04:54:54;;;;;;;12.20;9.10;;;0.40;99.90;;;;;;6156714;28;20509;-61
2022/12/12 04:57:58;;;;;;;8.90;8.00;;;0.30;99.90;;;;;;6177417;28;20474;-61
2022/12/12 05:01:09;;;;;;;12.87;9.17;;;0.30;99.90;;;;;;6177904;28;20470;-61
2022/12/12 05:04:16;;;;;;;10.70;7.80;;;0.30;99.90;;;;;;6176997;28;20976;-61
2022/12/12 05:07:34;;;;;;;10.03;8.40;;;0.10;99.90;;;;;;6176406;28;20456;-61
2022/12/12 05:10:45;;;;;;;12.17;9.43;;;0.00;99.90;;;;;;6176253;28;20485;-62
2022/12/12 05:13:49;;;;;;;10.50;8.33;;;0.00;99.90;;;;;;6176460;28;20473;-62
2022/12/12 05:16:58;;;;;;;11.57;8.90;;;0.10;99.90;;;;;;6176409;28;20485;-61
2022/12/12 05:20:01;;;;;;;12.13;8.57;;;0.10;99.90;;;;;;6176163;28;20478;-61
2022/12/12 05:23:04;;;;;;;11.23;9.20;;;0.10;99.90;;;;;;6176858;28;20984;-62
2022/12/12 05:26:13;;;;;;;9.47;8.30;;;0.10;99.90;;;;;;6177279;28;20466;-62
2022/12/12 05:29:16;;;;;;;13.33;10.03;;;0.10;99.90;;;;;;6177152;28;20989;-62
2022/12/12 05:32:19;;;;;;;9.43;8.53;;;0.10;99.90;;;;;;6176767;28;20847;-62
2022/12/12 05:35:23;;;;;;;10.43;9.33;;;0.10;99.90;;;;;;6176844;28;20485;-62
2022/12/12 05:38:26;;;;;;;12.30;9.20;;;0.10;99.90;;;;;;6178636;28;20486;-62
2022/12/12 05:41:30;;;;;;;12.73;8.50;;;0.10;99.90;;;;;;6163273;28;20550;-62
2022/12/12 05:44:34;;;;;;;12.33;9.13;;;0.00;99.90;;;;;;6153531;28;20482;-63
2022/12/12 05:47:37;;;;;;;10.10;8.93;;;0.00;99.90;;;;;;6153258;28;20485;-62
2022/12/12 05:50:40;;;;;;;11.70;9.70;;;0.00;99.90;;;;;;6153207;28;20997;-62
2022/12/12 05:53:43;;;;;;;11.17;8.83;;;-0.10;99.90;;;;;;6152790;28;20570;-62
2022/12/12 05:56:47;;;;;;;12.10;8.13;;;-0.30;99.90;;;;;;6171481;28;20470;-63
2022/12/12 05:59:51;;;;;;;12.10;10.90;;;-0.40;99.90;;;;;;6176864;28;20536;-62
2022/12/12 06:02:54;;;;;;;13.90;11.47;;;-0.40;99.90;;;;;;6176240;28;20981;-63
2022/12/12 06:05:57;;;;;;;13.10;10.07;;;-0.40;99.90;;;;;;6176716;28;20663;-62
2022/12/12 06:09:00;;;;;;;11.53;10.33;;;-0.30;99.90;;;;;;6175773;28;20481;-62
2022/12/12 06:12:05;;;;;;;11.53;9.43;;;-0.30;99.90;;;;;;6176663;28;20482;-62
2022/12/12 06:15:09;;;;;;;12.47;10.00;;;-0.30;99.90;;;;;;6176304;28;20474;-62
2022/12/12 06:18:13;;;;;;;12.20;9.67;;;-0.30;99.90;;;;;;6176471;28;20474;-62
2022/12/12 06:21:16;;;;;;;30.93;22.60;;;-0.30;99.90;;;;;;6176416;28;20478;-62
2022/12/12 06:24:20;;;;;;;21.83;14.67;;;-0.30;99.90;;;;;;6176431;28;20482;-62
2022/12/12 06:27:24;;;;;;;35.13;21.43;;;-0.30;99.90;;;;;;6176643;28;20481;-62
2022/12/12 06:30:27;;;;;;;16.47;11.87;;;-0.20;99.90;;;;;;6176054;28;20977;-62
2022/12/12 06:33:31;;;;;;;15.13;11.87;;;-0.30;99.90;;;;;;6176412;28;20485;-62
2022/12/12 06:36:34;;;;;;;50.07;24.57;;;-0.30;99.90;;;;;;6176243;28;20486;-62
2022/12/12 06:39:38;;;;;;;27.00;16.73;;;-0.40;99.90;;;;;;6176384;28;20477;-62
2022/12/12 06:42:42;;;;;;;87.07;34.23;;;-0.40;99.90;;;;;;6128758;28;20484;-62
2022/12/12 06:45:51;;;;;;;55.50;21.60;;;-0.40;99.90;;;;;;6130194;28;20476;-62
2022/12/12 06:48:55;;;;;;;43.23;18.63;;;-0.30;99.90;;;;;;6130244;28;20476;-61
2022/12/12 06:51:58;;;;;;;22.07;13.00;;;-0.30;99.90;;;;;;6129605;28;20490;-61
2022/12/12 06:55:01;;;;;;;20.20;11.73;;;-0.40;99.90;;;;;;6139581;28;20486;-62
2022/12/12 06:58:06;;;;;;;35.03;20.83;;;-0.40;99.90;;;;;;6181624;28;20509;-61
2022/12/12 07:01:11;;;;;;;23.50;14.40;;;-0.40;99.90;;;;;;6177312;28;20470;-61
2022/12/12 07:04:15;;;;;;;63.87;32.50;;;-0.40;99.90;;;;;;6176279;28;20462;-61
2022/12/12 07:07:18;;;;;;;23.53;16.20;;;-0.40;99.90;;;;;;6175842;28;20453;-62
2022/12/12 07:10:21;;;;;;;36.40;19.43;;;-0.50;99.90;;;;;;6176369;28;20462;-62
2022/12/12 07:13:25;;;;;;;26.70;17.20;;;-0.40;99.90;;;;;;6175511;28;20500;-62
2022/12/12 07:16:29;;;;;;;21.50;15.00;;;-0.40;99.90;;;;;;6175894;28;20454;-61
2022/12/12 07:19:32;;;;;;;38.33;21.70;;;-0.30;99.90;;;;;;6175907;28;20468;-62
2022/12/12 07:22:35;;;;;;;51.90;28.20;;;-0.30;99.90;;;;;;6179967;28;20481;-62
2022/12/12 07:25:39;;;;;;;15.17;11.60;;;-0.30;99.90;;;;;;6180044;28;20470;-63
2022/12/12 07:28:44;;;;;;;16.73;12.10;;;-0.20;99.90;;;;;;6179809;28;20547;-62
2022/12/12 07:31:47;;;;;;;14.77;12.40;;;-0.20;99.90;;;;;;6179632;28;20473;-62
2022/12/12 07:34:50;;;;;;;15.03;10.70;;;-0.10;99.90;;;;;;6179903;28;20544;-61
2022/12/12 07:37:55;;;;;;;15.53;9.60;;;-0.10;99.90;;;;;;6180241;28;20476;-62
2022/12/12 07:41:03;;;;;;;12.40;9.40;;;-0.10;99.90;;;;;;6169355;28;20611;-63
2022/12/12 07:44:07;;;;;;;10.97;8.03;;;0.00;99.90;;;;;;6155739;28;20482;-62
2022/12/12 07:47:10;;;;;;;14.73;10.73;;;0.00;99.90;;;;;;6155339;28;20478;-62
2022/12/12 07:50:14;;;;;;;11.60;9.23;;;0.00;99.90;;;;;;6155369;28;20482;-62
2022/12/12 07:53:17;;;;;;;12.83;7.60;;;0.20;99.90;;;;;;6155529;28;20506;-62
2022/12/12 07:56:20;;;;;;;10.07;7.07;;;0.10;99.90;;;;;;6170948;28;20485;-63
2022/12/12 07:59:25;;;;;;;14.20;9.03;;;0.20;99.90;;;;;;6179330;28;20484;-62
2022/12/12 08:02:28;;;;;;;13.77;10.27;;;0.20;99.90;;;;;;6179231;28;20474;-63
2022/12/12 08:05:31;;;;;;;10.83;8.60;;;0.30;99.90;;;;;;6179423;28;20478;-63
2022/12/12 08:08:35;;;;;;;16.20;9.27;;;0.30;99.90;;;;;;6179230;28;20466;-63
2022/12/12 08:11:39;;;;;;;10.47;8.37;;;0.40;99.90;;;;;;6179227;28;20489;-63
2022/12/12 08:14:49;;;;;;;13.13;9.40;;;0.40;99.90;;;;;;6178707;28;20488;-63
2022/12/12 08:17:53;;;;;;;19.60;9.10;;;0.50;99.90;;;;;;6178976;28;20474;-62
2022/12/12 08:20:56;;;;;;;11.80;6.87;;;0.50;99.90;;;;;;6176849;28;20489;-62
2022/12/12 08:24:01;;;;;;;7.77;6.87;;;0.60;99.90;;;;;;6141117;28;20545;-63
2022/12/12 08:27:04;;;;;;;9.73;6.90;;;0.70;99.90;;;;;;6142888;28;20483;-63
2022/12/12 08:30:16;;;;;;;8.50;7.30;;;0.70;99.90;;;;;;6143350;28;20528;-61
2022/12/12 08:33:19;;;;;;;8.03;6.70;;;0.70;99.90;;;;;;6140383;28;20975;-61
2022/12/12 08:36:24;;;;;;;7.20;6.50;;;0.80;99.90;;;;;;6145306;28;20472;-62
2022/12/12 08:39:28;;;;;;;11.97;9.87;;;0.90;99.90;;;;;;6132015;28;20532;-63
2022/12/12 08:42:31;;;;;;;11.80;7.27;;;0.90;99.90;;;;;;6152724;28;20490;-61
2022/12/12 08:45:36;;;;;;;8.70;6.80;;;0.90;99.80;;;;;;6154112;28;20983;-61
2022/12/12 08:48:39;;;;;;;7.40;6.60;;;0.90;99.60;;;;;;6154270;28;20541;-61
2022/12/12 08:51:43;;;;;;;7.60;5.67;;;0.90;98.70;;;;;;6153754;28;20508;-62
2022/12/12 08:54:46;;;;;;;8.27;6.30;;;0.80;96.90;;;;;;6156298;28;20816;-61
2022/12/12 08:57:49;;;;;;;9.27;7.00;;;0.80;97.30;;;;;;6177644;28;20482;-58
2022/12/12 09:00:55;;;;;;;10.70;7.23;;;0.80;98.30;;;;;;6155139;28;20729;-59
2022/12/12 09:03:59;;;;;;;7.83;6.93;;;0.80;98.60;;;;;;6153666;28;20570;-59
2022/12/12 09:07:02;;;;;;;9.87;8.50;;;0.90;99.10;;;;;;6153297;28;20486;-59
2022/12/12 09:10:10;;;;;;;8.50;7.60;;;1.00;99.30;;;;;;6153856;28;20538;-58
2022/12/12 09:13:13;;;;;;;7.10;6.40;;;1.10;99.10;;;;;;6153019;28;20557;-59
2022/12/12 09:16:20;;;;;;;8.17;6.70;;;1.20;98.00;;;;;;6153034;28;20458;-59
2022/12/12 09:19:24;;;;;;;11.00;9.30;;;1.20;97.80;;;;;;6153496;28;20427;-59
2022/12/12 09:22:27;;;;;;;7.87;6.80;;;1.20;97.50;;;;;;6154595;28;20446;-58
2022/12/12 09:25:30;;;;;;;9.50;7.30;;;1.20;97.80;;;;;;6148304;28;20475;-58
2022/12/12 09:28:34;;;;;;;7.80;7.00;;;1.20;98.10;;;;;;6129968;28;20463;-58
2022/12/12 09:31:38;;;;;;;9.70;7.70;;;1.20;96.80;;;;;;6129432;28;20823;-59
2022/12/12 09:34:42;;;;;;;11.07;8.60;;;1.20;97.30;;;;;;6146154;28;20475;-59
2022/12/12 09:37:45;;;;;;;12.53;9.47;;;1.20;98.50;;;;;;6153221;28;20478;-58
2022/12/12 09:40:53;;;;;;;10.80;8.70;;;1.40;98.10;;;;;;6152989;28;20482;-59
2022/12/12 09:43:59;;;;;;;8.90;8.00;;;1.40;98.10;;;;;;6151733;28;20486;-61
2022/12/12 09:47:12;;;;;;;10.17;8.00;;;1.40;98.80;;;;;;6153806;28;20484;-59
2022/12/12 09:50:23;;;;;;;9.57;8.60;;;1.40;99.00;;;;;;6153149;28;20482;-58
2022/12/12 09:53:27;;;;;;;9.23;7.63;;;1.50;99.10;;;;;;6152921;28;20545;-57
2022/12/12 09:56:37;;;;;;;15.87;9.07;;;1.60;98.50;;;;;;6169152;28;20474;-60
2022/12/12 09:59:45;;;;;;;8.10;7.20;;;1.80;97.80;;;;;;6176636;28;20574;-59
2022/12/12 10:03:09;;;;;;;8.13;7.33;;;1.80;97.00;;;;;;6176695;28;20536;-59
2022/12/12 10:06:14;;;;;;;9.00;5.67;;;1.80;96.50;;;;;;6168002;28;20477;-58
2022/12/12 10:09:58;;;;;;;9.40;7.37;;;1.90;95.30;;;;;;6152422;28;20638;-58
2022/12/12 10:13:03;;;;;;;6.37;5.77;;;1.90;95.00;;;;;;6152032;28;20495;-58
2022/12/12 10:16:09;;;;;;;4.33;3.93;;;2.00;94.30;;;;;;6152413;28;20475;-58
2022/12/12 10:19:29;;;;;;;5.90;5.33;;;1.90;92.00;;;;;;6151667;28;20534;-58
2022/12/12 10:22:37;;;;;;;7.43;6.73;;;1.90;92.40;;;;;;6146224;28;20484;-61
2022/12/12 10:25:49;;;;;;;7.30;6.00;;;1.90;92.80;;;;;;6128923;28;20917;-57
2022/12/12 10:28:55;;;;;;;11.63;6.50;;;2.00;92.60;;;;;;6128309;28;20490;-57
2022/12/12 10:32:07;;;;;;;11.03;6.17;;;2.00;92.50;;;;;;6128283;28;20817;-58
2022/12/12 10:35:17;;;;;;;6.53;5.83;;;2.10;93.60;;;;;;6127922;28;20495;-58
2022/12/12 10:38:48;;;;;;;6.40;5.60;;;2.20;94.00;;;;;;6128755;28;20515;-57
2022/12/12 10:41:59;;;;;;;6.80;5.90;;;2.20;93.10;;;;;;6148763;28;20490;-59
2022/12/12 10:45:20;;;;;;;8.10;6.50;;;2.20;93.70;;;;;;6153771;28;20478;-57
2022/12/12 10:48:24;;;;;;;10.73;6.23;;;2.20;93.10;;;;;;6134550;28;20952;-59
2022/12/12 10:51:29;;;;;;;8.67;5.63;;;2.20;92.70;;;;;;6128554;28;20480;-60
2022/12/12 10:54:38;;;;;;;6.43;4.70;;;2.30;93.40;;;;;;6132339;28;20948;-61
2022/12/12 10:57:41;;;;;;;6.20;4.80;;;2.50;92.50;;;;;;6181125;28;20485;-60
2022/12/12 11:00:46;;;;;;;5.07;3.67;;;2.60;91.70;;;;;;6180977;28;20973;-59
2022/12/12 11:03:51;;;;;;;3.80;3.50;;;2.70;88.80;;;;;;6179735;28;20474;-58
2022/12/12 11:06:56;;;;;;;3.60;3.30;;;3.00;83.40;;;;;;6178220;28;20824;-60
2022/12/12 11:09:59;;;;;;;3.93;3.40;;;3.20;83.20;;;;;;6152769;28;20482;-60
2022/12/12 11:13:15;;;;;;;3.33;2.70;;;4.70;82.20;;;;;;6157392;28;20543;-59
2022/12/12 11:16:21;;;;;;;3.97;3.57;;;8.80;66.40;;;;;;6156436;28;20447;-59
2022/12/12 11:19:26;;;;;;;3.47;3.17;;;11.30;46.60;;;;;;6148652;28;20448;-59
2022/12/12 11:22:33;;;;;;;7.00;3.57;;;10.70;44.10;;;;;;6132353;28;20455;-59
2022/12/12 11:25:37;;;;;;;8.90;6.63;;;9.30;44.50;;;;;;6132639;28;20475;-59
2022/12/12 11:28:42;;;;;;;4.73;4.20;;;8.70;48.60;;;;;;6131950;28;20796;-60
2022/12/12 11:31:45;;;;;;;5.63;3.83;;;10.60;45.40;;;;;;6134506;28;20463;-60
2022/12/12 11:34:51;;;;;;;3.33;3.03;;;15.00;43.30;;;;;;6133269;28;20538;-59
2022/12/12 11:38:00;;;;;;;4.77;3.57;;;18.00;30.70;;;;;;6131874;28;20482;-61
2022/12/12 11:41:05;;;;;;;3.40;3.00;;;21.10;27.80;;;;;;6145330;28;20490;-62
2022/12/12 11:44:24;;;;;;;4.33;2.80;;;23.10;23.40;;;;;;6152077;28;20237;-62
2022/12/12 11:47:34;;;;;;;3.13;2.83;;;25.00;21.80;;;;;;6155886;28;20663;-61
2022/12/12 11:50:45;;;;;;;5.10;2.70;;;25.80;19.60;;;;;;6155939;28;20227;-61
2022/12/12 11:53:50;;;;;;;4.13;3.10;;;25.70;17.60;;;;;;6154620;28;20675;-61
2022/12/12 11:56:57;;;;;;;3.10;2.67;;;23.60;17.80;;;;;;6174815;28;20231;-60
2022/12/12 12:00:10;;;;;;;4.00;3.57;;;20.80;18.70;;;;;;6179642;28;20234;-61
2022/12/12 12:03:42;;;;;;;3.70;2.90;;;18.60;20.30;;;;;;6176816;28;20587;-60
2022/12/12 12:07:01;;;;;;;3.80;3.50;;;19.40;20.60;;;;;;6153810;28;20238;-60
2022/12/12 12:10:15;;;;;;;3.10;2.80;;;18.60;20.70;;;;;;6155037;28;20791;-60
2022/12/12 12:13:43;;;;;;;7.60;2.97;;;19.20;20.60;;;;;;6154908;28;20424;-59
2022/12/12 12:16:56;;;;;;;3.13;2.80;;;16.40;21.30;;;;;;6155164;28;20486;-60
2022/12/12 12:20:07;;;;;;;3.33;3.03;;;14.40;23.20;;;;;;6155168;28;20471;-60
2022/12/12 12:23:19;;;;;;;3.73;3.43;;;12.50;24.70;;;;;;6154368;28;20963;-60
2022/12/12 12:26:34;;;;;;;3.70;2.70;;;11.50;25.90;;;;;;6166572;28;20474;-60
2022/12/12 12:29:58;;;;;;;3.97;2.70;;;10.80;26.40;;;;;;6178193;28;20815;-60
2022/12/12 12:33:22;;;;;;;3.00;2.70;;;11.40;27.50;;;;;;6161569;28;20820;-60
2022/12/12 12:36:33;;;;;;;2.70;2.40;;;14.20;27.00;;;;;;6139544;28;20475;-61
2022/12/12 12:40:08;;;;;;;3.37;3.07;;;15.70;23.90;;;;;;6165275;28;20485;-60
2022/12/12 12:43:31;;;;;;;3.87;2.83;;;16.80;22.40;;;;;;6130048;28;20479;-59
2022/12/12 12:46:42;;;;;;;4.30;2.60;;;15.40;22.60;;;;;;6129479;28;20468;-61
2022/12/12 12:49:49;;;;;;;3.27;2.97;;;15.60;23.30;;;;;;6130803;28;20491;-61
2022/12/12 12:52:56;;;;;;;3.20;2.90;;;17.50;22.70;;;;;;6129590;28;20491;-59
2022/12/12 12:56:05;;;;;;;3.70;3.40;;;17.20;21.60;;;;;;6154979;28;20478;-59
2022/12/12 12:59:17;;;;;;;4.00;3.40;;;15.60;22.60;;;;;;6178371;28;20466;-59
2022/12/12 13:02:38;;;;;;;6.50;3.57;;;13.80;23.60;;;;;;6179281;28;20510;-59
2022/12/12 13:05:45;;;;;;;5.50;4.00;;;12.30;24.10;;;;;;6179640;28;20937;-61
2022/12/12 13:08:57;;;;;;;3.60;3.30;;;11.10;25.90;;;;;;6161664;28;20486;-60
2022/12/12 13:12:05;;;;;;;5.30;4.80;;;11.00;27.50;;;;;;6155422;28;20479;-60
2022/12/12 13:15:19;;;;;;;4.63;3.77;;;12.60;26.90;;;;;;6153811;28;20479;-59
2022/12/12 13:18:24;;;;;;;5.63;5.03;;;15.90;23.70;;;;;;6145398;28;20477;-61
2022/12/12 13:21:39;;;;;;;5.30;4.20;;;17.40;20.60;;;;;;6154075;28;20482;-59
2022/12/12 13:24:49;;;;;;;1.80;1.60;;;16.10;20.00;;;;;;6153349;28;20474;-60
2022/12/12 13:28:04;;;;;;;2.80;2.07;;;14.00;20.40;;;;;;6129274;28;20978;-61
2022/12/12 13:31:39;;;;;;;2.57;2.00;;;13.60;21.80;;;;;;6130010;28;20482;-62
2022/12/12 13:34:46;;;;;;;3.00;2.20;;;15.80;21.20;;;;;;6129385;28;20480;-60
2022/12/12 13:37:52;;;;;;;3.33;2.07;;;18.10;20.40;;;;;;6130283;28;20491;-61
2022/12/12 13:40:57;;;;;;;3.00;1.80;;;19.80;18.90;;;;;;6138310;28;20479;-60
2022/12/12 13:44:00;;;;;;;1.60;1.50;;;21.10;17.90;;;;;;6146068;28;20955;-60
2022/12/12 13:47:12;;;;;;;2.50;2.17;;;20.90;15.50;;;;;;6141496;28;20242;-60
2022/12/12 13:50:21;;;;;;;3.50;1.90;;;19.20;15.00;;;;;;6150574;28;20491;-61
2022/12/12 13:53:24;;;;;;;5.10;1.50;;;18.50;15.70;;;;;;6153070;28;20491;-60
2022/12/12 13:56:41;;;;;;;2.50;1.33;;;19.00;16.30;;;;;;6169137;28;20528;-61
2022/12/12 14:00:19;;;;;;;3.30;1.50;;;19.30;15.50;;;;;;6176770;28;20466;-60
2022/12/12 14:03:30;;;;;;;1.90;1.70;;;18.10;15.80;;;;;;6127557;28;20487;-60
2022/12/12 14:06:33;;;;;;;4.03;2.70;;;17.20;16.70;;;;;;6177541;28;20474;-60
2022/12/12 14:09:38;;;;;;;3.00;1.50;;;17.30;17.90;;;;;;6152922;28;20474;-60
2022/12/12 14:12:51;;;;;;;5.27;2.00;;;17.30;18.30;;;;;;6140678;28;20493;-60
2022/12/12 14:16:04;;;;;;;1.60;1.40;;;16.40;18.60;;;;;;6164628;28;20492;-60
2022/12/12 14:19:25;;;;;;;1.60;1.43;;;15.70;19.50;;;;;;6176542;28;20559;-60
2022/12/12 14:22:29;;;;;;;2.00;1.80;;;14.60;19.60;;;;;;6177215;28;20450;-61
2022/12/12 14:25:34;;;;;;;1.60;1.40;;;13.50;20.30;;;;;;6177279;28;20469;-60
2022/12/12 14:28:37;;;;;;;2.70;1.60;;;12.40;21.40;;;;;;6176542;28;20488;-60
2022/12/12 14:31:44;;;;;;;2.20;2.00;;;11.10;22.40;;;;;;6181880;28;20966;-59
2022/12/12 14:34:59;;;;;;;2.50;1.83;;;9.70;24.70;;;;;;6181614;28;20519;-59
2022/12/12 14:38:15;;;;;;;2.60;2.30;;;8.50;25.50;;;;;;6180632;28;20470;-60
2022/12/12 14:41:25;;;;;;;2.83;1.80;;;7.70;26.90;;;;;;6170881;28;20471;-60
2022/12/12 14:44:29;;;;;;;2.27;2.00;;;6.80;27.60;;;;;;6157394;28;20493;-59
2022/12/12 14:47:40;;;;;;;1.90;1.80;;;6.30;28.40;;;;;;6156890;28;20498;-59
2022/12/12 14:50:49;;;;;;;3.80;2.83;;;5.80;29.00;;;;;;6156671;28;20479;-61
2022/12/12 14:53:54;;;;;;;2.20;2.00;;;5.50;30.00;;;;;;6156556;28;20487;-59
2022/12/12 14:56:59;;;;;;;4.70;3.20;;;5.10;30.00;;;;;;6156598;28;20478;-58
2022/12/12 15:00:03;;;;;;;3.40;2.53;;;4.80;30.80;;;;;;6157056;28;20474;-60
2022/12/12 15:03:07;;;;;;;5.40;3.40;;;4.50;31.00;;;;;;6156737;28;20478;-59
2022/12/12 15:06:28;;;;;;;4.67;3.33;;;4.30;32.50;;;;;;6157018;28;21044;-58
2022/12/12 15:09:33;;;;;;;7.37;3.57;;;4.10;32.90;;;;;;6156270;28;20482;-59
2022/12/12 15:12:43;;;;;;;8.80;4.00;;;3.80;33.60;;;;;;6155521;28;20493;-59
2022/12/12 15:15:50;;;;;;;10.70;6.20;;;3.70;33.80;;;;;;6156075;28;20549;-58
2022/12/12 15:18:55;;;;;;;14.43;6.87;;;3.50;33.30;;;;;;6155623;28;20482;-60
2022/12/12 15:22:00;;;;;;;2.50;2.30;;;3.40;33.70;;;;;;6156027;28;20475;-60
2022/12/12 15:25:14;;;;;;;2.30;2.10;;;3.30;34.00;;;;;;6151370;28;20493;-59
2022/12/12 15:28:20;;;;;;;3.17;2.17;;;3.10;34.40;;;;;;6156508;28;20474;-59
2022/12/12 15:31:24;;;;;;;2.40;1.97;;;3.10;35.00;;;;;;6156566;28;20434;-60
2022/12/12 15:34:46;;;;;;;2.23;2.03;;;3.00;35.70;;;;;;6156496;28;20463;-60
2022/12/12 15:37:56;;;;;;;2.03;1.93;;;2.90;35.70;;;;;;6156373;28;20463;-59
2022/12/12 15:41:03;;;;;;;2.20;2.00;;;2.90;36.40;;;;;;6153758;28;20798;-58
2022/12/12 15:44:17;;;;;;;2.50;2.30;;;2.80;36.80;;;;;;6156626;28;20542;-60
2022/12/12 15:47:21;;;;;;;3.50;2.90;;;2.80;37.50;;;;;;6156649;28;20478;-59
2022/12/12 15:50:28;;;;;;;3.00;2.70;;;2.70;37.20;;;;;;6156728;28;20475;-59
2022/12/12 15:53:34;;;;;;;3.20;2.90;;;2.70;37.60;;;;;;6155188;28;20483;-59
2022/12/12 15:56:37;;;;;;;2.83;2.63;;;2.60;38.00;;;;;;6173239;28;20489;-60
2022/12/12 15:59:40;;;;;;;3.00;2.70;;;2.50;38.00;;;;;;6179957;28;20470;-59
2022/12/12 16:02:57;;;;;;;2.23;2.10;;;2.40;38.90;;;;;;6179057;28;20478;-58
2022/12/12 16:06:04;;;;;;;4.47;3.70;;;2.40;38.80;;;;;;6178762;28;21007;-59
2022/12/12 16:09:17;;;;;;;3.10;2.80;;;2.30;39.10;;;;;;6159914;28;20475;-59
2022/12/12 16:12:54;;;;;;;2.50;2.00;;;2.30;39.10;;;;;;6155815;28;20484;-58
2022/12/12 16:15:57;;;;;;;4.90;3.10;;;2.20;39.10;;;;;;6156271;28;20482;-58
2022/12/12 16:19:00;;;;;;;6.30;4.33;;;2.10;39.40;;;;;;6154359;28;20477;-58
2022/12/12 16:22:05;;;;;;;5.50;3.87;;;2.00;39.70;;;;;;6153999;28;20549;-58
2022/12/12 16:25:18;;;;;;;3.80;2.83;;;2.00;40.00;;;;;;6150447;28;20479;-58
2022/12/12 16:28:23;;;;;;;3.33;2.77;;;2.00;40.40;;;;;;6140990;28;20460;-58
2022/12/12 16:31:27;;;;;;;2.80;2.40;;;1.90;39.80;;;;;;6152411;28;20861;-58
2022/12/12 16:34:31;;;;;;;2.67;2.43;;;1.80;40.10;;;;;;6137836;28;20467;-58